Terminal Aerodrome Forecast
Issued by NWS Huntsville, AL

Home | Current Version | Previous Version | Text Only | Print | Product List | Glossary On
Versions: 1 2 3 4 5 6 7 8 9 10 11 12 13 14 15 16 17 18 19 20 21 22 23 24 25 26 27 28 29 30 31 32 33 34 35 36 37
000
FTUS44 KHUN 281736
TAFHSV
TAF
KHSV 281736Z 2818/0118 11009KT P6SM SCT120 SCT250
     FM282100 12009KT P6SM BKN120
     FM010500 12008KT P6SM SCT009 OVC025
     FM010900 12007KT P6SM -DZ OVC009=

USA.gov is the U.S. government's official web portal to all federal, state and local government web resources and services.